Main page
METAR-TAF:

METAR-TAF

Airports :

Deelen Air Base

Arnhem, Netherlands

latitude: 52-04N, longitude: 005-53E, elevation: 48 m

Current weather observation

The report was made 20 minutes ago, at 09:25 UTC
Wind 8 kt from the North, varying between Northwest and North/Northeast
Temperature 20°C
Humidity 56%
Pressure 1005 hPa
Visibility 10 km or more
Overcast at a height of 20000 ft

METAR: EHDL 190925Z AUTO 36008KT 320V030 9999 OVC200 20/11 Q1005 BLU

Time: 11:45 (09:45 UTC)


TAF: missing

Weather observations and forecasts of more than 4000 airports (METAR and TAF reports).

The available stations are represented by yellow and red dots on the map.

Hover mouse over dot to see the name of the station.

Then click to see weather observations and forecasts.

To change the map : click on the green buttons with a black cross to zoom in, on the green button with a dash to zoom out, or on the green arrows for adjacent maps.


METAR-TAF: